createdAt,value
2019-05-16T00:00:40.115Z,47.26
2019-05-16T00:03:07.995Z,47.32
2019-05-16T00:05:48.494Z,47.37
2019-05-16T00:08:11.875Z,47.32
2019-05-16T00:10:38.331Z,47.36
2019-05-16T00:13:08.459Z,47.38
2019-05-16T00:15:37.788Z,47.42
2019-05-16T00:18:08.586Z,47.40
2019-05-16T00:20:38.665Z,47.44
2019-05-16T00:23:07.931Z,47.40
2019-05-16T00:25:38.516Z,47.49
2019-05-16T00:28:08.807Z,47.40
2019-05-16T00:30:38.955Z,47.45
2019-05-16T00:33:08.335Z,47.49
2019-05-16T00:35:38.712Z,47.49
2019-05-16T00:38:08.665Z,47.46
2019-05-16T00:40:43.197Z,47.49
2019-05-16T00:43:11.414Z,47.49
2019-05-16T00:45:39.644Z,47.46
2019-05-16T00:48:08.970Z,47.54
2019-05-16T00:50:38.758Z,47.53
2019-05-16T00:53:08.958Z,47.53
2019-05-16T00:55:38.833Z,47.51
2019-05-16T00:58:08.851Z,47.52
2019-05-16T01:00:38.127Z,47.59
2019-05-16T01:03:12.767Z,47.62
2019-05-16T01:05:40.999Z,47.56
2019-05-16T01:08:09.226Z,47.61
2019-05-16T01:10:39.064Z,47.55
2019-05-16T01:13:08.017Z,47.63
2019-05-16T01:15:38.024Z,47.65
2019-05-16T01:18:08.070Z,47.64
2019-05-16T01:20:38.629Z,47.67
2019-05-16T01:23:08.720Z,47.69
2019-05-16T01:25:38.676Z,47.68
2019-05-16T01:28:08.669Z,47.67
2019-05-16T01:30:38.046Z,47.78
2019-05-16T01:33:08.672Z,47.65
2019-05-16T01:35:38.645Z,47.65
2019-05-16T01:38:08.502Z,47.64
2019-05-16T01:40:38.529Z,47.74
2019-05-16T01:43:08.406Z,47.80
2019-05-16T01:45:38.326Z,47.75
2019-05-16T01:48:08.267Z,47.75
2019-05-16T01:50:38.597Z,47.81
2019-05-16T01:53:08.434Z,47.81
2019-05-16T01:55:38.155Z,47.83
2019-05-16T01:58:08.104Z,47.87
2019-05-16T02:00:47.944Z,47.92
2019-05-16T02:03:08.238Z,47.95
2019-05-16T02:05:38.561Z,47.87
2019-05-16T02:08:08.910Z,47.84
2019-05-16T02:10:37.914Z,48.01
2019-05-16T02:13:08.326Z,47.96
2019-05-16T02:15:38.125Z,47.96
2019-05-16T02:18:08.254Z,48.02
2019-05-16T02:20:36.065Z,48.00
2019-05-16T02:23:04.170Z,48.01
2019-05-16T02:25:32.406Z,47.99
2019-05-16T02:28:00.534Z,48.01
2019-05-16T02:30:31.480Z,48.07
2019-05-16T02:33:01.106Z,48.04
2019-05-16T02:35:30.974Z,48.04
2019-05-16T02:38:00.688Z,48.04
2019-05-16T02:40:31.026Z,48.04
2019-05-16T02:43:01.075Z,48.07
2019-05-16T02:45:27.865Z,48.01
2019-05-16T02:47:56.210Z,47.97
2019-05-16T02:50:24.535Z,48.04
2019-05-16T02:52:52.857Z,48.01
2019-05-16T02:55:21.599Z,48.05
2019-05-16T02:57:50.900Z,48.07
2019-05-16T03:00:20.910Z,48.13
2019-05-16T03:02:50.503Z,48.07
2019-05-16T03:05:20.783Z,48.11
2019-05-16T03:07:52.157Z,48.09
2019-05-16T03:10:20.314Z,48.01
2019-05-16T03:12:51.289Z,48.07
2019-05-16T03:15:21.470Z,48.11
2019-05-16T03:17:50.792Z,48.13
2019-05-16T03:20:21.225Z,48.16
2019-05-16T03:22:51.764Z,48.20
2019-05-16T03:25:21.981Z,48.14
2019-05-16T03:27:51.215Z,48.03
2019-05-16T03:30:23.368Z,48.00
2019-05-16T03:32:54.122Z,48.04
2019-05-16T03:35:23.935Z,47.93
2019-05-16T03:37:55.591Z,47.89
2019-05-16T03:40:21.382Z,47.94
2019-05-16T03:42:51.699Z,47.90
2019-05-16T03:45:21.179Z,47.95
2019-05-16T03:47:51.050Z,47.90
2019-05-16T03:50:25.314Z,47.88
2019-05-16T03:52:53.520Z,47.75
2019-05-16T03:55:23.785Z,47.83
2019-05-16T03:57:52.128Z,47.76
2019-05-16T04:00:21.141Z,47.67
2019-05-16T04:02:52.301Z,47.65
2019-05-16T04:05:21.242Z,47.54
2019-05-16T04:08:08.839Z,47.57
2019-05-16T04:10:21.792Z,47.56
2019-05-16T04:12:51.484Z,47.60
2019-05-16T04:15:21.413Z,47.57
2019-05-16T04:17:51.211Z,47.41
2019-05-16T04:20:21.532Z,47.51
2019-05-16T04:22:51.299Z,47.46
2019-05-16T04:25:21.680Z,47.36
2019-05-16T04:27:50.265Z,47.34
2019-05-16T04:30:21.655Z,47.16
2019-05-16T04:32:50.939Z,47.32
2019-05-16T04:35:21.439Z,47.25
2019-05-16T04:37:51.343Z,47.04
2019-05-16T04:40:21.997Z,47.13
2019-05-16T04:42:51.348Z,47.15
2019-05-16T04:45:21.089Z,47.11
2019-05-16T04:47:51.166Z,47.23
2019-05-16T04:50:21.090Z,47.19
2019-05-16T04:52:51.726Z,47.20
2019-05-16T04:55:21.032Z,47.17
2019-05-16T04:57:51.187Z,47.25
2019-05-16T05:00:21.249Z,47.23
2019-05-16T05:02:51.980Z,47.28
2019-05-16T05:05:21.476Z,47.17
2019-05-16T05:07:51.141Z,47.19
2019-05-16T05:10:20.642Z,47.13
2019-05-16T05:12:51.557Z,47.36
2019-05-16T05:15:21.345Z,47.27
2019-05-16T05:17:50.237Z,47.42
2019-05-16T05:20:20.938Z,47.61
2019-05-16T05:22:49.959Z,47.70
2019-05-16T05:25:20.335Z,47.79
2019-05-16T05:27:50.065Z,47.81
2019-05-16T05:30:19.913Z,47.88
2019-05-16T05:32:50.204Z,48.01
2019-05-16T05:35:20.570Z,47.94
2019-05-16T05:37:50.827Z,48.02
2019-05-16T05:40:20.090Z,48.01
2019-05-16T05:42:50.481Z,48.01
2019-05-16T05:45:22.307Z,47.96
2019-05-16T05:47:50.697Z,47.96
2019-05-16T05:50:20.195Z,48.06
2019-05-16T05:52:50.538Z,48.04
2019-05-16T05:55:20.001Z,47.97
2019-05-16T05:57:50.710Z,47.97
2019-05-16T06:00:21.030Z,47.87
2019-05-16T06:02:50.820Z,47.75
2019-05-16T06:05:20.166Z,47.60
2019-05-16T06:07:50.800Z,47.51
2019-05-16T06:10:20.071Z,47.40
2019-05-16T06:12:52.328Z,46.84
2019-05-16T06:15:20.879Z,47.26
2019-05-16T06:17:50.868Z,47.10
2019-05-16T06:20:20.329Z,46.92
2019-05-16T06:22:50.716Z,46.94
2019-05-16T06:25:22.232Z,47.47
2019-05-16T06:27:50.958Z,47.49
2019-05-16T06:30:20.634Z,47.73
2019-05-16T06:32:50.025Z,47.53
2019-05-16T06:35:20.104Z,47.84
2019-05-16T06:37:49.795Z,48.08
2019-05-16T06:40:20.134Z,48.20
2019-05-16T06:42:47.549Z,48.15
2019-05-16T06:45:15.612Z,48.04
2019-05-16T06:47:43.667Z,48.13
2019-05-16T06:50:11.695Z,48.04
2019-05-16T06:52:40.853Z,48.20
2019-05-16T06:55:10.156Z,48.13
2019-05-16T06:57:40.631Z,48.24
2019-05-16T07:00:08.158Z,48.21
2019-05-16T07:02:36.187Z,48.32
2019-05-16T07:05:04.278Z,48.43
2019-05-16T07:07:34.438Z,48.36
2019-05-16T07:10:06.522Z,48.59
2019-05-16T07:12:34.563Z,47.84
2019-05-16T07:15:02.691Z,47.46
2019-05-16T07:17:30.793Z,47.10
2019-05-16T07:20:00.761Z,46.93
2019-05-16T07:22:31.534Z,47.01
2019-05-16T07:24:59.921Z,46.72
2019-05-16T07:27:30.674Z,46.55
2019-05-16T07:30:00.872Z,46.62
2019-05-16T07:32:30.185Z,46.46
2019-05-16T07:35:00.371Z,46.49
2019-05-16T07:37:28.263Z,46.53
2019-05-16T07:39:56.332Z,47.11
2019-05-16T07:42:24.449Z,46.72
2019-05-16T07:44:52.485Z,46.68
2019-05-16T07:47:22.837Z,46.33
2019-05-16T07:49:50.895Z,46.39
2019-05-16T07:52:21.257Z,46.38
2019-05-16T07:54:50.776Z,46.23
2019-05-16T07:57:22.831Z,46.30
2019-05-16T07:59:50.719Z,46.06
2019-05-16T08:02:20.887Z,46.42
2019-05-16T08:04:50.187Z,46.75
2019-05-16T08:07:20.132Z,46.02
2019-05-16T08:09:50.430Z,46.11
2019-05-16T08:12:23.541Z,46.08
2019-05-16T08:14:50.160Z,45.98
2019-05-16T08:17:21.441Z,45.75
2019-05-16T08:19:50.424Z,45.73
2019-05-16T08:22:17.526Z,45.91
2019-05-16T08:24:45.521Z,45.99
2019-05-16T08:27:13.568Z,45.69
2019-05-16T08:29:41.741Z,45.71
2019-05-16T08:32:11.571Z,45.87
2019-05-16T08:34:40.919Z,45.53
2019-05-16T08:37:32.873Z,45.36
2019-05-16T08:39:41.369Z,45.24
2019-05-16T08:42:13.015Z,44.94
2019-05-16T08:44:41.769Z,45.21
2019-05-16T08:47:11.762Z,44.83
2019-05-16T08:49:41.885Z,44.54
2019-05-16T08:52:11.443Z,45.07
2019-05-16T08:54:37.615Z,44.69
2019-05-16T08:57:24.347Z,44.85
2019-05-16T08:59:35.633Z,44.51
2019-05-16T09:02:03.761Z,45.47
2019-05-16T09:04:33.789Z,45.46
2019-05-16T09:07:02.095Z,45.27
2019-05-16T09:09:42.222Z,45.73
2019-05-16T09:11:59.943Z,45.62
2019-05-16T09:14:31.888Z,44.30
2019-05-16T09:16:58.250Z,44.99
2019-05-16T09:19:27.525Z,44.45
2019-05-16T09:21:57.981Z,44.44
2019-05-16T09:24:27.188Z,44.58
2019-05-16T09:26:57.857Z,44.70
2019-05-16T09:29:27.333Z,44.45
2019-05-16T09:32:09.145Z,44.22
2019-05-16T09:34:24.754Z,43.40
2019-05-16T09:36:56.606Z,44.59
2019-05-16T09:39:22.570Z,45.06
2019-05-16T09:41:54.784Z,44.30
2019-05-16T09:44:20.320Z,44.40
2019-05-16T09:46:48.328Z,44.24
2019-05-16T09:49:23.950Z,44.24
2019-05-16T09:51:46.654Z,44.66
2019-05-16T09:54:16.753Z,44.01
2019-05-16T09:56:46.421Z,43.63
2019-05-16T09:59:14.335Z,43.78
2019-05-16T10:01:42.394Z,43.76
2019-05-16T10:04:10.460Z,44.33
2019-05-16T10:06:38.551Z,43.79
2019-05-16T10:09:06.607Z,43.60
2019-05-16T10:11:40.104Z,43.26
2019-05-16T10:14:07.099Z,43.54
2019-05-16T10:16:36.523Z,43.82
2019-05-16T10:19:04.095Z,44.11
2019-05-16T10:21:32.118Z,44.16
2019-05-16T10:24:00.171Z,43.82
2019-05-16T10:26:28.228Z,43.63
2019-05-16T10:28:57.775Z,43.99
2019-05-16T10:31:38.559Z,43.76
2019-05-16T10:33:58.040Z,43.78
2019-05-16T10:36:27.903Z,43.01
2019-05-16T10:38:58.783Z,44.19
2019-05-16T10:41:25.176Z,44.58
2019-05-16T10:43:53.229Z,44.72
2019-05-16T10:46:21.329Z,45.49
2019-05-16T10:48:49.362Z,45.72
2019-05-16T10:51:17.512Z,45.34
2019-05-16T10:54:02.293Z,45.28
2019-05-16T10:56:15.459Z,45.09
2019-05-16T10:59:04.913Z,45.15
2019-05-16T11:01:24.410Z,44.72
2019-05-16T11:03:43.056Z,44.41
2019-05-16T11:06:24.670Z,44.14
2019-05-16T11:08:40.888Z,43.92
2019-05-16T11:11:10.426Z,43.73
2019-05-16T11:13:38.440Z,43.66
2019-05-16T11:16:09.129Z,43.21
2019-05-16T11:18:37.629Z,43.14
2019-05-16T11:21:05.868Z,42.92
2019-05-16T11:23:36.578Z,42.76
2019-05-16T11:26:04.276Z,42.75
2019-05-16T11:28:39.618Z,42.40
2019-05-16T11:31:08.434Z,42.11
2019-05-16T11:33:37.074Z,42.37
2019-05-16T11:36:08.175Z,42.06
2019-05-16T11:38:37.778Z,42.05
2019-05-16T11:41:07.320Z,41.81
2019-05-16T11:43:36.689Z,41.80
2019-05-16T11:46:04.847Z,41.49
2019-05-16T11:48:32.888Z,41.50
2019-05-16T11:51:00.955Z,41.56
2019-05-16T11:53:29.497Z,41.18
2019-05-16T11:56:01.242Z,41.12
2019-05-16T11:58:27.416Z,40.97
2019-05-16T12:00:57.452Z,41.28
2019-05-16T12:03:27.882Z,41.37
2019-05-16T12:05:57.985Z,41.44
2019-05-16T12:08:26.458Z,41.36
2019-05-16T12:10:55.618Z,41.26
2019-05-16T12:13:29.743Z,41.44
2019-05-16T12:15:53.407Z,41.52
2019-05-16T12:18:21.565Z,41.79
2019-05-16T12:20:49.628Z,41.86
2019-05-16T12:23:17.745Z,41.76
2019-05-16T12:25:47.628Z,41.88
2019-05-16T12:28:16.906Z,41.95
2019-05-16T12:30:47.122Z,42.00
2019-05-16T12:33:18.327Z,41.99
2019-05-16T12:35:47.390Z,43.39
2019-05-16T12:38:17.040Z,44.09
2019-05-16T12:40:48.123Z,44.16
2019-05-16T12:43:18.139Z,43.89
2019-05-16T12:45:47.251Z,43.76
2019-05-16T12:48:19.915Z,43.74
2019-05-16T12:50:48.082Z,43.73
2019-05-16T12:53:16.441Z,43.50
2019-05-16T12:55:47.352Z,44.77
2019-05-16T12:58:19.538Z,44.94
2019-05-16T13:00:54.200Z,44.95
2019-05-16T13:03:14.378Z,44.81
2019-05-16T13:05:42.521Z,44.39
2019-05-16T13:08:10.596Z,44.37
2019-05-16T13:10:38.722Z,45.53
2019-05-16T13:13:07.729Z,46.50
2019-05-16T13:15:37.935Z,46.17
2019-05-16T13:18:08.013Z,45.61
2019-05-16T13:20:39.259Z,45.26
2019-05-16T13:23:13.925Z,45.15
2019-05-16T13:25:36.987Z,45.11
2019-05-16T13:28:07.898Z,45.11
2019-05-16T13:30:37.525Z,45.02
2019-05-16T13:33:07.004Z,45.03
2019-05-16T13:35:39.725Z,44.91
2019-05-16T13:38:08.136Z,45.01
2019-05-16T13:40:36.279Z,44.97
2019-05-16T13:43:08.656Z,44.99
2019-05-16T13:45:34.246Z,45.01
2019-05-16T13:48:02.325Z,44.97
2019-05-16T13:50:30.426Z,45.00
2019-05-16T13:52:58.735Z,44.98
2019-05-16T13:55:27.194Z,45.01
2019-05-16T13:57:55.352Z,44.98
2019-05-16T14:00:23.479Z,45.00
2019-05-16T14:02:51.731Z,45.00
2019-05-16T14:05:20.143Z,44.98
2019-05-16T14:07:48.290Z,45.01
2019-05-16T14:10:18.253Z,44.98
2019-05-16T14:12:50.092Z,45.01
2019-05-16T14:15:18.169Z,44.79
2019-05-16T14:17:48.586Z,44.19
2019-05-16T14:20:18.219Z,43.27
2019-05-16T14:22:45.824Z,42.44
2019-05-16T14:25:15.041Z,43.11
2019-05-16T14:27:43.147Z,43.60
2019-05-16T14:30:11.247Z,43.68
2019-05-16T14:32:42.916Z,44.08
2019-05-16T14:35:09.345Z,44.27
2019-05-16T14:37:37.995Z,44.24
2019-05-16T14:40:06.447Z,43.88
2019-05-16T14:42:34.584Z,44.27
2019-05-16T14:45:12.084Z,44.09
2019-05-16T14:47:39.125Z,44.29
2019-05-16T14:50:12.972Z,44.46
2019-05-16T14:52:37.039Z,44.31
2019-05-16T14:55:07.323Z,44.09
2019-05-16T14:57:36.870Z,44.25
2019-05-16T15:00:07.177Z,44.37
2019-05-16T15:02:37.802Z,44.33
2019-05-16T15:05:04.580Z,44.43
2019-05-16T15:07:32.683Z,44.40
2019-05-16T15:10:00.828Z,44.37
2019-05-16T15:12:28.909Z,44.40
2019-05-16T15:15:02.429Z,44.24
2019-05-16T15:17:27.515Z,44.26
2019-05-16T15:19:57.253Z,44.11
2019-05-16T15:22:27.341Z,46.74
2019-05-16T15:24:59.097Z,46.60
2019-05-16T15:27:26.296Z,45.48
2019-05-16T15:29:54.497Z,44.53
2019-05-16T15:32:22.591Z,43.88
2019-05-16T15:34:50.680Z,43.25
2019-05-16T15:37:19.835Z,42.90
2019-05-16T15:39:47.980Z,42.45
2019-05-16T15:42:17.941Z,42.77
2019-05-16T15:44:45.929Z,42.78
2019-05-16T15:47:14.019Z,42.62
2019-05-16T15:49:42.166Z,42.72
2019-05-16T15:52:10.293Z,42.44
2019-05-16T15:54:38.391Z,42.08
2019-05-16T15:57:06.757Z,41.95
2019-05-16T15:59:37.498Z,42.06
2019-05-16T16:02:07.221Z,41.93
2019-05-16T16:04:37.297Z,41.78
2019-05-16T16:07:07.649Z,41.63
2019-05-16T16:09:37.845Z,41.76
2019-05-16T16:12:23.014Z,41.82
2019-05-16T16:14:51.021Z,41.73
2019-05-16T16:17:19.113Z,41.71
2019-05-16T16:19:47.189Z,41.89
2019-05-16T16:22:17.503Z,42.37
2019-05-16T16:24:47.746Z,43.50
2019-05-16T16:27:16.790Z,45.80
2019-05-16T16:29:44.569Z,46.96
2019-05-16T16:32:12.613Z,46.97
2019-05-16T16:34:40.684Z,46.08
2019-05-16T16:37:08.807Z,45.58
2019-05-16T16:39:37.717Z,45.31
2019-05-16T16:42:07.633Z,45.27
2019-05-16T16:44:36.515Z,45.23
2019-05-16T16:47:06.755Z,45.20
2019-05-16T16:49:38.853Z,45.10
2019-05-16T16:52:04.319Z,44.90
2019-05-16T16:54:32.435Z,44.93
2019-05-16T16:57:00.529Z,44.97
2019-05-16T16:59:28.605Z,45.01
2019-05-16T17:01:57.179Z,44.99
2019-05-16T17:04:26.685Z,44.92
2019-05-16T17:06:56.974Z,44.99
2019-05-16T17:09:26.949Z,45.06
2019-05-16T17:11:57.005Z,44.90
2019-05-16T17:14:26.362Z,44.50
2019-05-16T17:16:54.556Z,44.44
2019-05-16T17:19:22.567Z,44.40
2019-05-16T17:22:03.293Z,44.46
2019-05-16T17:24:20.450Z,44.54
2019-05-16T17:26:50.034Z,44.58
2019-05-16T17:29:18.063Z,44.59
2019-05-16T17:31:53.684Z,44.61
2019-05-16T17:34:16.320Z,44.68
2019-05-16T17:36:46.501Z,44.69
2019-05-16T17:39:14.215Z,44.72
2019-05-16T17:41:42.276Z,44.80
2019-05-16T17:44:10.337Z,44.75
2019-05-16T17:46:40.954Z,44.80
2019-05-16T17:49:08.122Z,44.78
2019-05-16T17:51:36.776Z,44.81
2019-05-16T17:54:06.590Z,44.84
2019-05-16T17:56:36.881Z,44.88
2019-05-16T17:59:07.097Z,44.93
2019-05-16T18:01:34.625Z,44.76
2019-05-16T18:04:02.680Z,44.98
2019-05-16T18:06:30.686Z,45.07
2019-05-16T18:08:58.720Z,45.15
2019-05-16T18:11:26.879Z,45.26
2019-05-16T18:13:56.905Z,45.35
2019-05-16T18:16:24.678Z,45.46
2019-05-16T18:18:52.734Z,45.56
2019-05-16T18:21:20.769Z,45.74
2019-05-16T18:23:48.825Z,45.78
2019-05-16T18:26:17.335Z,45.89
2019-05-16T18:28:46.727Z,45.94
2019-05-16T18:31:16.851Z,45.93
2019-05-16T18:33:44.665Z,45.95
2019-05-16T18:36:12.711Z,45.93
2019-05-16T18:38:40.798Z,45.92
2019-05-16T18:41:08.850Z,45.91
2019-05-16T18:43:36.855Z,45.90
2019-05-16T18:46:07.053Z,45.80
2019-05-16T18:48:36.583Z,45.72
2019-05-16T18:51:06.465Z,45.62
2019-05-16T18:53:34.131Z,45.63
2019-05-16T18:56:02.297Z,45.73
2019-05-16T18:58:30.333Z,45.81
2019-05-16T19:00:58.337Z,45.90
2019-05-16T19:03:27.002Z,45.98
2019-05-16T19:05:57.229Z,46.18
2019-05-16T19:08:26.984Z,46.14
2019-05-16T19:10:56.859Z,46.18
2019-05-16T19:13:27.662Z,46.18
2019-05-16T19:15:57.142Z,46.33
2019-05-16T19:18:26.308Z,47.07
2019-05-16T19:20:56.867Z,47.41
2019-05-16T19:23:26.730Z,47.66
2019-05-16T19:25:54.186Z,47.71
2019-05-16T19:28:22.314Z,47.78
2019-05-16T19:30:50.393Z,47.95
2019-05-16T19:33:18.461Z,48.13
2019-05-16T19:35:46.912Z,48.16
2019-05-16T19:38:17.002Z,48.35
2019-05-16T19:40:46.975Z,48.20
2019-05-16T19:43:14.932Z,48.29
2019-05-16T19:45:43.005Z,48.45
2019-05-16T19:48:11.021Z,48.75
2019-05-16T19:50:39.070Z,48.64
2019-05-16T19:53:07.872Z,48.71
2019-05-16T19:55:36.555Z,48.81
2019-05-16T19:58:06.950Z,48.62
2019-05-16T20:00:37.167Z,48.96
2019-05-16T20:03:04.474Z,49.01
2019-05-16T20:05:32.525Z,48.94
2019-05-16T20:08:00.573Z,48.93
2019-05-16T20:10:28.618Z,49.36
2019-05-16T20:12:56.980Z,49.03
2019-05-16T20:15:26.969Z,48.68
2019-05-16T20:17:58.567Z,48.58
2019-05-16T20:20:27.340Z,48.71
2019-05-16T20:22:56.592Z,48.60
2019-05-16T20:25:24.306Z,48.67
2019-05-16T20:27:52.393Z,48.58
2019-05-16T20:30:20.445Z,48.55
2019-05-16T20:32:48.517Z,48.36
2019-05-16T20:35:17.476Z,48.39
2019-05-16T20:37:47.334Z,48.42
2019-05-16T20:40:17.265Z,48.32
2019-05-16T20:42:47.381Z,48.33
2019-05-16T20:45:16.904Z,48.29
2019-05-16T20:47:44.630Z,48.07
2019-05-16T20:50:12.635Z,48.00
2019-05-16T20:52:40.698Z,47.96
2019-05-16T20:55:08.887Z,48.03
2019-05-16T20:57:37.589Z,48.04
2019-05-16T21:00:06.767Z,48.12
2019-05-16T21:02:37.596Z,48.13
2019-05-16T21:05:06.663Z,48.07
2019-05-16T21:07:37.185Z,48.07
2019-05-16T21:10:04.528Z,48.11
2019-05-16T21:12:32.614Z,48.17
2019-05-16T21:15:00.678Z,48.24
2019-05-16T21:17:28.754Z,48.23
2019-05-16T21:19:57.483Z,48.24
2019-05-16T21:22:27.352Z,48.30
2019-05-16T21:24:57.158Z,48.36
2019-05-16T21:27:26.634Z,48.40
2019-05-16T21:29:56.650Z,48.44
2019-05-16T21:32:26.899Z,48.43
2019-05-16T21:34:56.602Z,48.49
2019-05-16T21:37:26.777Z,48.35
2019-05-16T21:39:59.432Z,48.51
2019-05-16T21:42:27.067Z,49.14
2019-05-16T21:44:57.085Z,49.84
2019-05-16T21:47:27.518Z,49.80
2019-05-16T21:49:56.890Z,49.83
2019-05-16T21:52:28.452Z,49.68
2019-05-16T21:54:56.509Z,49.76
2019-05-16T21:57:26.901Z,49.64
2019-05-16T21:59:57.206Z,49.84
2019-05-16T22:02:26.560Z,49.90
2019-05-16T22:04:56.870Z,49.82
2019-05-16T22:07:33.201Z,49.91
2019-05-16T22:09:56.827Z,49.72
2019-05-16T22:12:26.486Z,50.13
2019-05-16T22:14:57.253Z,50.29
2019-05-16T22:17:24.863Z,50.44
2019-05-16T22:19:52.976Z,50.93
2019-05-16T22:22:21.157Z,50.74
2019-05-16T22:24:49.471Z,50.96
2019-05-16T22:27:23.147Z,50.93
2019-05-16T22:29:51.523Z,51.01
2019-05-16T22:32:19.579Z,50.95
2019-05-16T22:34:47.787Z,50.87
2019-05-16T22:37:17.141Z,50.96
2019-05-16T22:39:45.392Z,50.72
2019-05-16T22:42:13.546Z,51.18
2019-05-16T22:44:41.590Z,51.03
2019-05-16T22:47:09.757Z,50.91
2019-05-16T22:49:37.878Z,50.72
2019-05-16T22:52:06.642Z,51.03
2019-05-16T22:54:37.081Z,51.31
2019-05-16T22:57:06.680Z,50.84
2019-05-16T22:59:35.151Z,51.06
2019-05-16T23:02:11.049Z,51.13
2019-05-16T23:04:36.703Z,51.09
2019-05-16T23:07:06.980Z,50.92
2019-05-16T23:09:36.574Z,50.98
2019-05-16T23:12:07.080Z,50.93
2019-05-16T23:14:34.929Z,50.76
2019-05-16T23:17:03.564Z,51.13
2019-05-16T23:19:31.641Z,50.86
2019-05-16T23:21:59.709Z,50.91
2019-05-16T23:24:27.890Z,51.04
2019-05-16T23:26:56.383Z,51.15
2019-05-16T23:29:30.955Z,50.93
2019-05-16T23:31:59.089Z,51.03
2019-05-16T23:34:27.417Z,51.04
2019-05-16T23:36:57.049Z,51.06
2019-05-16T23:39:44.197Z,50.83
2019-05-16T23:42:12.300Z,51.09
2019-05-16T23:44:40.331Z,51.35
2019-05-16T23:47:08.545Z,51.20
2019-05-16T23:49:36.823Z,51.26
2019-05-16T23:52:07.267Z,51.45
2019-05-16T23:54:36.855Z,51.63
2019-05-16T23:57:06.621Z,51.43
2019-05-16T23:59:36.711Z,51.62
